Terminal Aerodrome Forecast
Issued by NWS

Home | Current Version | Previous Version | Text Only | Print | Product List | Glossary On
Versions: 1 2 3 4 5 6 7 8 9 10 11 12 13 14 15 16
000
FTPA31 PHFO 252254 AAA
TAFSTU
TAF AMD
NSTU 252254Z 2523/2618 10010KT P6SM VCTS SCT018CB BKN040 BKN100
     FM260200 09010KT P6SM VCSH SCT018 BKN040 BKN100
     FM260600 09005KT P6SM SCT018 SCT040 BKN120=

USA.gov is the U.S. government's official web portal to all federal, state and local government web resources and services.